Time;durP1;ratioP1;P1;durP2;ratioP2;P2;SDS_P1;SDS_P2;PMS_P1;PMS_P2;Temp;Humidity;BMP_temperature;BMP_pressure;BME280_temperature;BME280_humidity;BME280_pressure;Samples;Min_cycle;Max_cycle;Signal;HPM_P1;HPM_P2
2023/11/13 00:02:09;;;;;;;10.45;6.10;;;;;;;;;;5083524;28;20080;-63
2023/11/13 00:04:35;;;;;;;10.15;5.90;;;;;;;;;;5064303;28;20012;-60
2023/11/13 00:07:01;;;;;;;10.70;6.30;;;;;;;;;;5082382;28;20168;-61
2023/11/13 00:09:27;;;;;;;11.00;6.40;;;;;;;;;;5080994;28;20045;-63
2023/11/13 00:11:53;;;;;;;10.57;6.20;;;;;;;;;;5063234;28;20020;-64
2023/11/13 00:14:20;;;;;;;10.88;6.40;;;;;;;;;;5082620;28;20040;-64
2023/11/13 00:16:46;;;;;;;11.90;8.88;;;;;;;;;;5083048;28;20031;-63
2023/11/13 00:19:12;;;;;;;10.43;6.10;;;;;;;;;;5083057;28;20035;-62
2023/11/13 00:21:38;;;;;;;10.30;6.07;;;;;;;;;;5081520;28;20032;-62
2023/11/13 00:24:05;;;;;;;10.48;6.18;;;;;;;;;;5063677;28;20131;-63
2023/11/13 00:26:31;;;;;;;10.30;6.00;;;;;;;;;;5082671;28;20025;-64
2023/11/13 00:28:57;;;;;;;10.30;6.10;;;;;;;;;;5082948;28;20091;-63
2023/11/13 00:31:23;;;;;;;9.98;5.90;;;;;;;;;;5082148;28;20031;-64
2023/11/13 00:33:50;;;;;;;10.90;7.05;;;;;;;;;;5082205;28;20024;-61
2023/11/13 00:36:16;;;;;;;10.40;6.10;;;;;;;;;;5083013;28;20031;-62
2023/11/13 00:38:42;;;;;;;10.38;6.07;;;;;;;;;;5065286;28;20025;-64
2023/11/13 00:41:12;;;;;;;10.35;6.60;;;;;;;;;;5082312;28;20434;-62
2023/11/13 00:43:39;;;;;;;9.73;5.70;;;;;;;;;;5080754;28;20617;-60
2023/11/13 00:46:06;;;;;;;10.05;5.90;;;;;;;;;;5081709;28;20024;-64
2023/11/13 00:48:32;;;;;;;10.32;6.10;;;;;;;;;;5082564;28;20025;-62
2023/11/13 00:50:59;;;;;;;10.10;5.90;;;;;;;;;;5081751;28;20036;-62
2023/11/13 00:53:25;;;;;;;10.40;6.10;;;;;;;;;;5082644;28;20044;-61
2023/11/13 00:55:51;;;;;;;10.18;5.97;;;;;;;;;;5082211;28;20013;-62
2023/11/13 00:58:17;;;;;;;9.80;5.80;;;;;;;;;;5083239;28;20077;-60
2023/11/13 01:00:43;;;;;;;10.05;5.88;;;;;;;;;;5085842;28;20017;-62
2023/11/13 01:03:10;;;;;;;10.27;6.13;;;;;;;;;;5085470;28;20092;-61
2023/11/13 01:05:36;;;;;;;25.42;14.68;;;;;;;;;;5085796;28;20070;-62
2023/11/13 01:08:03;;;;;;;10.02;5.85;;;;;;;;;;5085898;28;20085;-63
2023/11/13 01:10:29;;;;;;;10.00;5.90;;;;;;;;;;5066895;28;20020;-61
2023/11/13 01:12:55;;;;;;;10.40;6.65;;;;;;;;;;5067618;28;20025;-62
2023/11/13 01:15:22;;;;;;;10.18;6.00;;;;;;;;;;5086125;28;20024;-64
2023/11/13 01:17:48;;;;;;;9.90;5.80;;;;;;;;;;5086707;28;20048;-62
2023/11/13 01:20:15;;;;;;;9.80;5.80;;;;;;;;;;5068281;28;20035;-63
2023/11/13 01:22:41;;;;;;;9.88;5.80;;;;;;;;;;5086861;28;20056;-64
2023/11/13 01:25:07;;;;;;;10.45;6.55;;;;;;;;;;5086510;28;20048;-64
2023/11/13 01:27:33;;;;;;;10.30;5.97;;;;;;;;;;5086172;28;20028;-63
2023/11/13 01:29:59;;;;;;;10.25;6.00;;;;;;;;;;5084518;28;20020;-62
2023/11/13 01:32:25;;;;;;;10.07;5.90;;;;;;;;;;5081534;28;20083;-62
2023/11/13 01:34:51;;;;;;;9.90;5.80;;;;;;;;;;5065557;28;20100;-64
2023/11/13 01:37:18;;;;;;;9.80;5.80;;;;;;;;;;5086336;28;20108;-63
2023/11/13 01:39:44;;;;;;;9.90;5.82;;;;;;;;;;5084907;28;20020;-64
2023/11/13 01:42:10;;;;;;;10.05;5.90;;;;;;;;;;5068223;28;20031;-62
2023/11/13 01:44:36;;;;;;;9.93;5.80;;;;;;;;;;5084968;28;20141;-64
2023/11/13 01:47:03;;;;;;;10.05;5.90;;;;;;;;;;5085440;28;20027;-62
2023/11/13 01:49:29;;;;;;;10.10;5.90;;;;;;;;;;5085552;28;20059;-63
2023/11/13 01:51:55;;;;;;;10.05;5.90;;;;;;;;;;5084533;28;20061;-64
2023/11/13 01:54:23;;;;;;;10.07;5.90;;;;;;;;;;5085795;28;20029;-65
2023/11/13 01:56:49;;;;;;;10.00;5.90;;;;;;;;;;5082375;28;20096;-58
2023/11/13 01:59:15;;;;;;;9.93;5.88;;;;;;;;;;5084056;28;20032;-62
2023/11/13 02:01:42;;;;;;;9.93;5.80;;;;;;;;;;5084183;28;20035;-62
2023/11/13 02:04:08;;;;;;;10.10;5.90;;;;;;;;;;5084858;28;20028;-64
2023/11/13 02:06:34;;;;;;;9.88;5.80;;;;;;;;;;5085063;28;20039;-62
2023/11/13 02:09:00;;;;;;;10.10;5.90;;;;;;;;;;5084410;28;20478;-62
2023/11/13 02:11:28;;;;;;;10.38;6.07;;;;;;;;;;5083296;28;20044;-64
2023/11/13 02:13:54;;;;;;;9.13;5.35;;;;;;;;;;5083908;28;20031;-63
2023/11/13 02:16:20;;;;;;;9.15;5.40;;;;;;;;;;5085378;28;20017;-62
2023/11/13 02:18:47;;;;;;;9.30;5.50;;;;;;;;;;5084894;28;20024;-63
2023/11/13 02:21:13;;;;;;;9.00;5.30;;;;;;;;;;5066518;28;20020;-63
2023/11/13 02:23:39;;;;;;;9.40;5.50;;;;;;;;;;5084192;28;20068;-63
2023/11/13 02:26:10;;;;;;;9.13;5.40;;;;;;;;;;5066523;28;20059;-63
2023/11/13 02:28:36;;;;;;;9.05;5.30;;;;;;;;;;5084813;28;20500;-62
2023/11/13 02:31:02;;;;;;;8.82;5.22;;;;;;;;;;5084024;28;20021;-64
2023/11/13 02:33:28;;;;;;;8.95;5.30;;;;;;;;;;5084749;28;20033;-63
2023/11/13 02:35:54;;;;;;;9.20;5.40;;;;;;;;;;5084673;28;20024;-64
2023/11/13 02:38:20;;;;;;;9.10;5.40;;;;;;;;;;5085255;28;20021;-63
2023/11/13 02:40:46;;;;;;;8.35;4.95;;;;;;;;;;5083579;28;20021;-63
2023/11/13 02:43:12;;;;;;;8.80;5.20;;;;;;;;;;5083779;28;20104;-63
2023/11/13 02:45:39;;;;;;;8.48;5.00;;;;;;;;;;5084693;28;20115;-62
2023/11/13 02:48:05;;;;;;;8.90;5.30;;;;;;;;;;5084245;28;20185;-63
2023/11/13 02:50:31;;;;;;;8.80;5.20;;;;;;;;;;5083223;28;20046;-64
2023/11/13 02:52:57;;;;;;;8.60;5.10;;;;;;;;;;5083616;28;20450;-62
2023/11/13 02:55:24;;;;;;;8.75;5.20;;;;;;;;;;5083447;28;20061;-64
2023/11/13 02:57:52;;;;;;;8.90;5.22;;;;;;;;;;5083838;28;20027;-62
2023/11/13 03:00:19;;;;;;;8.48;5.00;;;;;;;;;;5082853;28;20035;-60
2023/11/13 03:02:45;;;;;;;9.48;6.15;;;;;;;;;;5083742;28;20024;-62
2023/11/13 03:05:11;;;;;;;8.68;5.20;;;;;;;;;;5084237;28;20044;-62
2023/11/13 03:07:37;;;;;;;8.88;5.25;;;;;;;;;;5084495;28;20025;-62
2023/11/13 03:10:03;;;;;;;8.90;5.25;;;;;;;;;;5083590;28;20036;-62
2023/11/13 03:12:29;;;;;;;9.15;5.40;;;;;;;;;;5084503;28;20055;-62
2023/11/13 03:14:55;;;;;;;9.30;5.47;;;;;;;;;;5083827;28;20024;-62
2023/11/13 03:17:21;;;;;;;9.10;5.35;;;;;;;;;;5083378;28;20020;-63
2023/11/13 03:19:47;;;;;;;9.10;5.35;;;;;;;;;;5065375;28;20062;-63
2023/11/13 03:22:13;;;;;;;9.00;5.30;;;;;;;;;;5065309;28;20394;-61
2023/11/13 03:24:39;;;;;;;11.23;7.30;;;;;;;;;;5083047;28;20028;-63
2023/11/13 03:27:06;;;;;;;9.02;5.40;;;;;;;;;;5082970;28;20040;-63
2023/11/13 03:29:32;;;;;;;9.50;5.60;;;;;;;;;;5082897;28;20027;-60
2023/11/13 03:31:58;;;;;;;9.30;5.50;;;;;;;;;;5083325;28;20031;-62
2023/11/13 03:34:24;;;;;;;9.40;5.50;;;;;;;;;;5083662;28;20020;-61
2023/11/13 03:36:50;;;;;;;9.48;5.57;;;;;;;;;;5083366;28;20447;-62
2023/11/13 03:39:16;;;;;;;9.52;5.57;;;;;;;;;;5065683;28;20065;-63
2023/11/13 03:41:42;;;;;;;9.50;5.60;;;;;;;;;;5083419;28;20024;-61
2023/11/13 03:44:09;;;;;;;9.70;5.70;;;;;;;;;;5081108;28;20115;-63
2023/11/13 03:46:35;;;;;;;9.25;5.43;;;;;;;;;;5079728;28;20029;-60
2023/11/13 03:49:01;;;;;;;10.05;5.90;;;;;;;;;;5065108;28;20123;-63
2023/11/13 03:51:27;;;;;;;9.70;5.70;;;;;;;;;;5064875;28;20028;-63
2023/11/13 03:53:53;;;;;;;9.82;5.80;;;;;;;;;;5064998;28;20095;-63
2023/11/13 03:56:20;;;;;;;9.55;5.60;;;;;;;;;;5081477;28;20028;-62
2023/11/13 03:58:46;;;;;;;9.73;5.68;;;;;;;;;;5083083;28;20055;-61
2023/11/13 04:01:12;;;;;;;10.00;5.82;;;;;;;;;;5082070;28;20024;-62
2023/11/13 04:03:38;;;;;;;9.98;5.88;;;;;;;;;;5083021;28;20371;-62
2023/11/13 04:06:04;;;;;;;10.23;6.00;;;;;;;;;;5082444;28;20035;-63
2023/11/13 04:08:30;;;;;;;10.30;6.03;;;;;;;;;;5082044;28;20025;-60
2023/11/13 04:10:56;;;;;;;10.40;6.10;;;;;;;;;;5081893;28;20511;-61
2023/11/13 04:13:23;;;;;;;10.40;6.10;;;;;;;;;;5064220;28;20021;-63
2023/11/13 04:15:49;;;;;;;10.32;6.05;;;;;;;;;;5082935;28;20053;-62
2023/11/13 04:18:15;;;;;;;10.43;6.10;;;;;;;;;;5064314;28;20025;-59
2023/11/13 04:20:42;;;;;;;10.63;6.20;;;;;;;;;;5077883;28;20023;-60
2023/11/13 04:23:08;;;;;;;10.02;5.90;;;;;;;;;;5078734;28;20024;-60
2023/11/13 04:25:34;;;;;;;10.07;5.90;;;;;;;;;;5061248;28;20029;-61
2023/11/13 04:28:01;;;;;;;10.38;6.10;;;;;;;;;;5059833;28;20026;-61
2023/11/13 04:30:27;;;;;;;9.90;5.80;;;;;;;;;;5060033;28;20027;-60
2023/11/13 04:32:53;;;;;;;9.98;5.90;;;;;;;;;;5060517;28;20084;-62
2023/11/13 04:35:19;;;;;;;9.90;5.80;;;;;;;;;;5082396;28;20475;-63
2023/11/13 04:37:46;;;;;;;10.50;6.10;;;;;;;;;;5082069;28;20117;-64
2023/11/13 04:40:12;;;;;;;10.15;5.90;;;;;;;;;;5063376;28;20078;-57
2023/11/13 04:42:38;;;;;;;9.90;5.80;;;;;;;;;;5080875;28;20028;-61
2023/11/13 04:45:05;;;;;;;9.95;5.88;;;;;;;;;;5081490;28;20036;-62
2023/11/13 04:47:31;;;;;;;10.15;5.93;;;;;;;;;;5063034;28;20040;-62
2023/11/13 04:49:58;;;;;;;10.38;6.05;;;;;;;;;;5062745;28;20100;-61
2023/11/13 04:52:24;;;;;;;10.40;6.10;;;;;;;;;;5082113;28;20065;-63
2023/11/13 04:54:51;;;;;;;10.95;6.43;;;;;;;;;;5082362;28;20060;-63
2023/11/13 04:57:17;;;;;;;10.75;6.30;;;;;;;;;;5063768;28;20720;-60
2023/11/13 04:59:43;;;;;;;10.88;6.38;;;;;;;;;;5080872;28;20056;-62
2023/11/13 05:02:09;;;;;;;10.93;6.40;;;;;;;;;;5081792;28;20051;-61
2023/11/13 05:04:35;;;;;;;10.77;6.30;;;;;;;;;;5081509;28;20036;-62
2023/11/13 05:07:01;;;;;;;11.30;6.60;;;;;;;;;;5081051;28;20084;-62
2023/11/13 05:09:28;;;;;;;12.20;7.10;;;;;;;;;;5080341;28;20043;-62
2023/11/13 05:11:54;;;;;;;17.73;10.52;;;;;;;;;;5079879;28;20029;-59
2023/11/13 05:14:21;;;;;;;12.05;7.05;;;;;;;;;;5061198;28;20035;-61
2023/11/13 05:16:47;;;;;;;12.60;7.20;;;;;;;;;;5080109;28;20017;-63
2023/11/13 05:19:13;;;;;;;14.13;8.35;;;;;;;;;;5080040;28;20021;-60
2023/11/13 05:21:39;;;;;;;12.18;7.32;;;;;;;;;;5080521;28;20037;-61
2023/11/13 05:24:06;;;;;;;11.70;6.80;;;;;;;;;;5081496;28;20054;-61
2023/11/13 05:26:32;;;;;;;11.38;6.60;;;;;;;;;;5081180;28;20093;-63
2023/11/13 05:28:58;;;;;;;11.40;6.63;;;;;;;;;;5064247;28;20119;-62
2023/11/13 05:31:24;;;;;;;11.65;6.80;;;;;;;;;;5080312;28;20413;-62
2023/11/13 05:33:50;;;;;;;11.10;6.50;;;;;;;;;;5085246;28;20052;-63
2023/11/13 05:36:17;;;;;;;11.30;6.68;;;;;;;;;;5085257;28;20063;-60
2023/11/13 05:38:43;;;;;;;11.40;6.60;;;;;;;;;;5085002;28;20032;-61
2023/11/13 05:41:10;;;;;;;11.38;6.63;;;;;;;;;;5065743;28;20128;-62
2023/11/13 05:43:36;;;;;;;11.35;6.70;;;;;;;;;;5083241;28;20036;-62
2023/11/13 05:46:02;;;;;;;11.80;6.90;;;;;;;;;;5084306;28;20413;-62
2023/11/13 05:48:28;;;;;;;11.70;6.80;;;;;;;;;;5066041;28;20124;-62
2023/11/13 05:50:54;;;;;;;11.82;6.90;;;;;;;;;;5065866;28;20021;-62
2023/11/13 05:53:21;;;;;;;12.63;7.30;;;;;;;;;;5083785;28;20029;-63
2023/11/13 05:55:47;;;;;;;12.40;7.20;;;;;;;;;;5084005;28;20047;-61
2023/11/13 05:58:13;;;;;;;13.05;8.15;;;;;;;;;;5081196;28;20080;-61
2023/11/13 06:00:39;;;;;;;12.48;7.25;;;;;;;;;;5080761;28;20025;-62
2023/11/13 06:03:06;;;;;;;12.20;7.10;;;;;;;;;;5066097;28;20226;-63
2023/11/13 06:05:32;;;;;;;12.02;7.05;;;;;;;;;;5083878;28;20024;-61
2023/11/13 06:07:58;;;;;;;11.70;6.80;;;;;;;;;;5084846;28;20162;-63
2023/11/13 06:10:25;;;;;;;11.40;6.68;;;;;;;;;;5082620;28;20029;-62
2023/11/13 06:12:51;;;;;;;11.52;6.70;;;;;;;;;;5065563;28;20092;-60
2023/11/13 06:15:17;;;;;;;12.32;7.13;;;;;;;;;;5064285;28;20032;-60
2023/11/13 06:17:44;;;;;;;12.15;7.03;;;;;;;;;;5083051;28;20047;-60
2023/11/13 06:20:14;;;;;;;12.75;7.45;;;;;;;;;;5082467;28;20016;-62
2023/11/13 06:22:41;;;;;;;12.43;7.20;;;;;;;;;;5082870;28;20032;-56
2023/11/13 06:25:07;;;;;;;12.43;7.20;;;;;;;;;;5082834;28;20024;-64
2023/11/13 06:27:34;;;;;;;12.45;7.20;;;;;;;;;;5082530;28;20390;-60
2023/11/13 06:30:00;;;;;;;12.43;7.20;;;;;;;;;;5082930;28;20025;-64
2023/11/13 06:32:26;;;;;;;12.75;7.35;;;;;;;;;;5064855;28;20078;-63
2023/11/13 06:34:52;;;;;;;12.60;7.30;;;;;;;;;;5082845;28;20029;-63
2023/11/13 06:37:19;;;;;;;12.00;7.00;;;;;;;;;;5082839;28;20032;-64
2023/11/13 06:39:45;;;;;;;12.05;7.00;;;;;;;;;;5081435;28;20455;-63
2023/11/13 06:42:11;;;;;;;12.60;7.28;;;;;;;;;;5082545;28;20419;-64
2023/11/13 06:44:38;;;;;;;12.45;7.20;;;;;;;;;;5081416;28;20047;-64
2023/11/13 06:47:05;;;;;;;12.90;7.50;;;;;;;;;;5082504;28;20028;-64
2023/11/13 06:49:31;;;;;;;12.63;7.30;;;;;;;;;;5081787;28;20114;-64
2023/11/13 06:51:57;;;;;;;12.55;7.32;;;;;;;;;;5063101;28;20423;-64
2023/11/13 06:54:24;;;;;;;12.75;7.32;;;;;;;;;;5080915;28;20487;-63
2023/11/13 06:56:50;;;;;;;12.60;7.40;;;;;;;;;;5081254;28;20099;-61
2023/11/13 06:59:16;;;;;;;12.30;7.10;;;;;;;;;;5080808;28;20036;-59
2023/11/13 07:01:42;;;;;;;11.50;6.70;;;;;;;;;;5080289;28;20036;-63
2023/11/13 07:04:10;;;;;;;11.55;6.72;;;;;;;;;;5081384;28;20025;-62
2023/11/13 07:06:37;;;;;;;11.60;6.80;;;;;;;;;;5082045;28;20024;-62
2023/11/13 07:09:03;;;;;;;11.63;6.78;;;;;;;;;;5082003;28;20587;-62
2023/11/13 07:11:29;;;;;;;11.60;6.78;;;;;;;;;;5081644;28;20055;-64
2023/11/13 07:13:55;;;;;;;11.95;6.95;;;;;;;;;;5081463;28;20080;-64
2023/11/13 07:16:22;;;;;;;12.50;7.20;;;;;;;;;;5082755;28;20035;-63
2023/11/13 07:18:48;;;;;;;12.38;7.20;;;;;;;;;;5080011;28;20033;-63
2023/11/13 07:21:15;;;;;;;12.30;7.15;;;;;;;;;;5080383;28;20031;-62
2023/11/13 07:23:41;;;;;;;12.60;7.30;;;;;;;;;;5080485;28;20028;-62
2023/11/13 07:26:07;;;;;;;12.35;7.20;;;;;;;;;;5081796;28;20020;-63
2023/11/13 07:28:33;;;;;;;12.00;7.00;;;;;;;;;;5063055;28;20462;-63
2023/11/13 07:30:59;;;;;;;12.40;7.15;;;;;;;;;;5078880;28;20567;-63
2023/11/13 07:33:25;;;;;;;11.95;6.97;;;;;;;;;;5078696;28;20048;-61
2023/11/13 07:35:51;;;;;;;12.50;7.20;;;;;;;;;;5079218;28;20112;-64
2023/11/13 07:38:18;;;;;;;12.57;7.30;;;;;;;;;;5080764;28;20071;-61
2023/11/13 07:40:44;;;;;;;12.38;7.15;;;;;;;;;;5079812;28;20029;-62
2023/11/13 07:43:10;;;;;;;12.88;7.50;;;;;;;;;;5080351;28;20187;-61
2023/11/13 07:45:38;;;;;;;13.00;7.55;;;;;;;;;;5080817;28;20123;-60
2023/11/13 07:48:04;;;;;;;12.98;7.60;;;;;;;;;;5079954;28;20020;-61
2023/11/13 07:50:30;;;;;;;12.98;7.57;;;;;;;;;;5073829;28;20625;-63
2023/11/13 07:52:56;;;;;;;12.80;7.50;;;;;;;;;;5074339;28;20036;-63
2023/11/13 07:55:22;;;;;;;13.63;9.82;;;;;;;;;;5061224;28;20021;-62
2023/11/13 07:57:49;;;;;;;12.55;7.30;;;;;;;;;;5079429;28;20032;-62
2023/11/13 08:00:15;;;;;;;12.60;7.40;;;;;;;;;;5076496;28;20035;-62
2023/11/13 08:02:42;;;;;;;12.90;7.50;;;;;;;;;;5078107;28;20093;-59
2023/11/13 08:05:12;;;;;;;12.77;7.63;;;;;;;;;;5077740;28;20028;-60
2023/11/13 08:07:39;;;;;;;12.23;7.10;;;;;;;;;;5066654;28;20021;-59
2023/11/13 08:10:12;;;;;;;12.60;7.88;;;;;;;;;;5057477;28;20048;-62
2023/11/13 08:12:42;;;;;;;12.50;7.30;;;;;;;;;;5057162;28;20040;-63
2023/11/13 08:15:12;;;;;;;11.90;6.90;;;;;;;;;;5057737;28;20114;-63
2023/11/13 08:17:38;;;;;;;12.50;7.22;;;;;;;;;;5056309;28;20074;-59
2023/11/13 08:20:08;;;;;;;12.35;7.20;;;;;;;;;;5049226;28;20104;-61
2023/11/13 08:22:35;;;;;;;12.68;7.60;;;;;;;;;;5031141;28;20021;-54
2023/11/13 08:25:01;;;;;;;12.20;7.10;;;;;;;;;;5062316;28;20029;-51
2023/11/13 08:27:27;;;;;;;13.43;9.00;;;;;;;;;;5068438;28;20107;-51
2023/11/13 08:29:53;;;;;;;12.43;7.20;;;;;;;;;;5067504;28;20602;-54
2023/11/13 08:32:19;;;;;;;12.68;7.35;;;;;;;;;;5068453;28;20498;-54
2023/11/13 08:34:45;;;;;;;11.90;6.95;;;;;;;;;;5068170;28;20120;-48
2023/11/13 08:37:11;;;;;;;12.82;7.43;;;;;;;;;;5068420;28;20108;-53
2023/11/13 08:39:38;;;;;;;12.73;7.40;;;;;;;;;;5067802;28;20021;-56
2023/11/13 08:42:04;;;;;;;13.80;8.18;;;;;;;;;;5068424;28;20033;-50
2023/11/13 08:44:30;;;;;;;13.38;7.93;;;;;;;;;;5068066;28;20039;-52
2023/11/13 08:46:56;;;;;;;13.57;8.40;;;;;;;;;;5068307;28;20032;-53
2023/11/13 08:49:22;;;;;;;13.27;7.72;;;;;;;;;;5067727;28;20064;-50
2023/11/13 08:51:48;;;;;;;13.27;7.78;;;;;;;;;;5067509;28;20409;-54
2023/11/13 08:54:16;;;;;;;13.45;8.30;;;;;;;;;;5067582;28;20100;-54
2023/11/13 08:56:42;;;;;;;13.52;8.40;;;;;;;;;;5068164;28;20039;-55
2023/11/13 08:59:12;;;;;;;13.63;8.88;;;;;;;;;;5068004;28;20078;-55
2023/11/13 09:01:40;;;;;;;13.60;8.68;;;;;;;;;;5046273;28;20433;-54
2023/11/13 09:04:06;;;;;;;13.52;8.40;;;;;;;;;;5047898;28;20379;-54
2023/11/13 09:06:35;;;;;;;13.63;8.70;;;;;;;;;;5049967;28;20052;-54
2023/11/13 09:09:01;;;;;;;;;;;;;;;;;;5052486;28;20021;-53
2023/11/13 09:11:28;;;;;;;13.90;9.32;;;;;;;;;;5051212;28;20023;-53
2023/11/13 09:13:55;;;;;;;13.63;8.82;;;;;;;;;;5051917;28;20104;-52
2023/11/13 09:16:21;;;;;;;13.80;9.20;;;;;;;;;;5052226;28;20060;-53
2023/11/13 09:18:52;;;;;;;13.77;9.07;;;;;;;;;;5052160;28;20489;-55
2023/11/13 09:21:18;;;;;;;14.48;9.32;;;;;;;;;;5052273;28;20025;-50
2023/11/13 09:23:45;;;;;;;13.75;9.07;;;;;;;;;;5053295;28;20025;-52
2023/11/13 09:26:11;;;;;;;13.98;9.82;;;;;;;;;;5059053;28;20033;-50
2023/11/13 09:28:46;;;;;;;14.25;10.40;;;;;;;;;;5051859;28;20025;-57
2023/11/13 09:31:12;;;;;;;14.20;10.35;;;;;;;;;;5051322;28;20025;-49
2023/11/13 09:33:43;;;;;;;15.68;13.98;;;;;;;;;;5051252;28;20379;-52
2023/11/13 09:36:09;;;;;;;15.48;13.70;;;;;;;;;;5051468;28;20453;-54
2023/11/13 09:38:35;;;;;;;15.52;13.82;;;;;;;;;;5051523;28;20024;-48
2023/11/13 09:41:03;;;;;;;15.20;13.20;;;;;;;;;;5050514;28;20029;-53
2023/11/13 09:43:35;;;;;;;15.27;13.10;;;;;;;;;;5051043;28;20033;-55
2023/11/13 09:46:08;;;;;;;15.30;13.30;;;;;;;;;;5033208;28;20036;-49
2023/11/13 09:48:44;;;;;;;15.30;13.38;;;;;;;;;;5051051;28;20025;-52
2023/11/13 09:51:14;;;;;;;15.23;13.15;;;;;;;;;;5056920;28;20021;-55
2023/11/13 09:53:42;;;;;;;15.20;12.98;;;;;;;;;;5070735;28;20036;-54
2023/11/13 09:56:09;;;;;;;15.52;13.75;;;;;;;;;;5071105;28;20020;-54
2023/11/13 09:58:36;;;;;;;17.42;15.60;;;;;;;;;;5069653;28;20032;-56
2023/11/13 10:01:02;;;;;;;15.60;13.90;;;;;;;;;;5052412;28;20024;-46
2023/11/13 10:03:29;;;;;;;15.75;14.05;;;;;;;;;;5052380;28;20059;-54
2023/11/13 10:05:55;;;;;;;15.82;14.13;;;;;;;;;;5070652;28;20044;-52
2023/11/13 10:08:22;;;;;;;15.82;14.13;;;;;;;;;;5070986;28;20524;-54
2023/11/13 10:10:49;;;;;;;15.95;14.25;;;;;;;;;;5070449;28;20035;-53
2023/11/13 10:13:21;;;;;;;15.55;13.85;;;;;;;;;;5070620;28;20385;-51
2023/11/13 10:15:47;;;;;;;15.68;13.98;;;;;;;;;;5070644;28;20069;-53
2023/11/13 10:18:14;;;;;;;15.88;14.18;;;;;;;;;;5069918;28;20027;-52
2023/11/13 10:20:42;;;;;;;15.80;14.10;;;;;;;;;;5069780;28;20114;-53
2023/11/13 10:23:08;;;;;;;15.80;14.10;;;;;;;;;;5070165;28;20069;-53
2023/11/13 10:25:46;;;;;;;25.00;22.67;;;;;;;;;;5070765;28;20028;-53
2023/11/13 10:28:13;;;;;;;16.05;14.35;;;;;;;;;;5070392;28;20031;-56
2023/11/13 10:30:51;;;;;;;15.77;14.07;;;;;;;;;;5060168;28;20090;-55
2023/11/13 10:33:17;;;;;;;15.75;14.05;;;;;;;;;;5068452;28;20029;-51
2023/11/13 10:35:45;;;;;;;16.20;14.50;;;;;;;;;;5070625;28;20024;-55
2023/11/13 10:38:15;;;;;;;15.85;14.15;;;;;;;;;;5070472;28;20048;-54
2023/11/13 10:40:44;;;;;;;15.95;14.25;;;;;;;;;;5069163;28;20078;-56
2023/11/13 10:43:27;;;;;;;16.25;14.55;;;;;;;;;;5069904;28;20025;-55
2023/11/13 10:45:53;;;;;;;16.02;14.32;;;;;;;;;;5070242;28;20021;-53
2023/11/13 10:48:34;;;;;;;15.75;14.05;;;;;;;;;;5069970;28;20445;-57
2023/11/13 10:51:04;;;;;;;15.55;13.85;;;;;;;;;;5069083;28;20124;-57
2023/11/13 10:53:39;;;;;;;15.57;13.88;;;;;;;;;;5069967;28;20378;-53
2023/11/13 10:56:05;;;;;;;15.73;14.02;;;;;;;;;;5069921;28;20029;-52
2023/11/13 10:58:32;;;;;;;15.57;13.88;;;;;;;;;;5069620;28;20020;-51
2023/11/13 11:01:00;;;;;;;15.75;14.05;;;;;;;;;;5068978;28;20028;-53
2023/11/13 11:03:30;;;;;;;15.52;13.82;;;;;;;;;;5069743;28;20109;-51
2023/11/13 11:05:56;;;;;;;15.65;13.95;;;;;;;;;;5069614;28;20351;-54
2023/11/13 11:08:23;;;;;;;15.50;13.73;;;;;;;;;;5069468;28;20079;-54
2023/11/13 11:10:52;;;;;;;15.50;13.80;;;;;;;;;;5068572;28;20374;-54
2023/11/13 11:13:20;;;;;;;15.50;13.80;;;;;;;;;;5068999;28;20024;-56
2023/11/13 11:16:04;;;;;;;15.43;13.63;;;;;;;;;;5069881;28;20544;-56
2023/11/13 11:18:35;;;;;;;15.40;13.57;;;;;;;;;;5071526;28;20094;-55
2023/11/13 11:21:04;;;;;;;15.40;13.55;;;;;;;;;;5068969;28;20069;-52
2023/11/13 11:23:34;;;;;;;15.40;13.65;;;;;;;;;;5068951;28;20044;-56
2023/11/13 11:26:01;;;;;;;15.27;13.45;;;;;;;;;;5069228;28;20028;-50
2023/11/13 11:28:54;;;;;;;15.20;13.10;;;;;;;;;;5051090;28;20048;-53
2023/11/13 11:31:34;;;;;;;15.80;14.10;;;;;;;;;;5068231;28;20036;-55
2023/11/13 11:34:03;;;;;;;15.30;13.40;;;;;;;;;;5068883;28;20451;-50
2023/11/13 11:36:32;;;;;;;15.32;13.63;;;;;;;;;;5069193;28;20020;-51
2023/11/13 11:39:12;;;;;;;15.80;14.10;;;;;;;;;;5068759;28;20025;-55
2023/11/13 11:41:40;;;;;;;15.88;14.18;;;;;;;;;;5067723;28;20013;-51
2023/11/13 11:44:09;;;;;;;15.60;13.90;;;;;;;;;;5068807;28;20062;-51
2023/11/13 11:47:03;;;;;;;15.57;13.88;;;;;;;;;;5050923;28;20032;-54
2023/11/13 11:49:30;;;;;;;15.70;14.00;;;;;;;;;;5066953;28;20074;-54
2023/11/13 11:52:00;;;;;;;15.48;13.77;;;;;;;;;;5068568;28;20025;-53
2023/11/13 11:54:26;;;;;;;15.30;13.55;;;;;;;;;;5068843;28;20498;-56
2023/11/13 11:56:56;;;;;;;20.58;18.58;;;;;;;;;;5068671;28;20059;-54
2023/11/13 11:59:24;;;;;;;19.02;17.23;;;;;;;;;;5068959;28;20078;-56
2023/11/13 12:01:50;;;;;;;19.50;17.70;;;;;;;;;;5068679;28;20021;-52
2023/11/13 12:04:16;;;;;;;19.30;17.50;;;;;;;;;;5068344;28;20052;-50
2023/11/13 12:06:48;;;;;;;18.90;17.00;;;;;;;;;;5068642;28;20024;-53
2023/11/13 12:09:16;;;;;;;18.13;16.33;;;;;;;;;;5068349;28;20047;-54
2023/11/13 12:11:42;;;;;;;18.55;16.65;;;;;;;;;;5067711;28;20024;-54
2023/11/13 12:14:08;;;;;;;18.23;16.42;;;;;;;;;;5050144;28;20039;-52
2023/11/13 12:16:34;;;;;;;17.83;16.02;;;;;;;;;;5068139;28;20027;-51
2023/11/13 12:19:01;;;;;;;18.05;16.25;;;;;;;;;;5068120;28;20515;-57
2023/11/13 12:21:28;;;;;;;18.27;16.48;;;;;;;;;;5049205;28;20051;-54
2023/11/13 12:23:55;;;;;;;18.48;16.67;;;;;;;;;;5068162;28;20162;-54
2023/11/13 12:26:22;;;;;;;18.63;16.83;;;;;;;;;;5068374;28;20261;-54
2023/11/13 12:28:49;;;;;;;19.00;17.20;;;;;;;;;;5067934;28;20043;-54
2023/11/13 12:31:16;;;;;;;18.75;16.95;;;;;;;;;;5067551;28;20061;-51
2023/11/13 12:33:44;;;;;;;19.48;17.58;;;;;;;;;;5068004;28;20043;-52
2023/11/13 12:36:12;;;;;;;18.83;17.02;;;;;;;;;;5068119;28;20549;-52
2023/11/13 12:38:38;;;;;;;19.17;17.38;;;;;;;;;;5068072;28;20039;-53
2023/11/13 12:41:04;;;;;;;19.25;17.45;;;;;;;;;;5068350;28;20040;-50
2023/11/13 12:43:31;;;;;;;19.50;17.70;;;;;;;;;;5074517;28;20064;-55
2023/11/13 12:45:57;;;;;;;19.30;17.50;;;;;;;;;;5081596;28;20021;-58
2023/11/13 12:48:23;;;;;;;19.38;17.58;;;;;;;;;;5056638;28;20025;-52
2023/11/13 12:50:49;;;;;;;19.27;17.48;;;;;;;;;;5067373;28;20406;-52
2023/11/13 12:53:19;;;;;;;19.45;17.65;;;;;;;;;;5071779;28;20063;-56
2023/11/13 12:55:49;;;;;;;19.50;17.70;;;;;;;;;;5072642;28;20036;-56
2023/11/13 12:58:15;;;;;;;19.95;18.05;;;;;;;;;;5072251;28;20044;-53
2023/11/13 13:00:43;;;;;;;19.85;17.95;;;;;;;;;;5072784;28;20028;-55
2023/11/13 13:03:11;;;;;;;19.85;17.95;;;;;;;;;;5073991;28;20028;-53
2023/11/13 13:05:38;;;;;;;19.77;17.88;;;;;;;;;;5053979;28;20036;-54
2023/11/13 13:08:05;;;;;;;20.08;18.17;;;;;;;;;;5071929;28;20028;-55
2023/11/13 13:10:31;;;;;;;19.88;17.98;;;;;;;;;;5071046;28;20047;-49
2023/11/13 13:12:57;;;;;;;20.00;18.10;;;;;;;;;;5071111;28;20024;-53
2023/11/13 13:15:26;;;;;;;20.25;18.35;;;;;;;;;;5071757;28;20150;-51
2023/11/13 13:17:53;;;;;;;20.40;18.50;;;;;;;;;;5071644;28;20050;-55
2023/11/13 13:20:29;;;;;;;20.15;18.25;;;;;;;;;;5070604;28;20450;-55
2023/11/13 13:22:56;;;;;;;20.38;18.48;;;;;;;;;;5071780;28;20505;-57
2023/11/13 13:25:25;;;;;;;20.75;18.85;;;;;;;;;;5070460;28;20076;-54
2023/11/13 13:27:52;;;;;;;20.67;18.65;;;;;;;;;;5071601;28;20020;-52
2023/11/13 13:30:21;;;;;;;20.45;18.55;;;;;;;;;;5070675;28;20089;-52
2023/11/13 13:32:47;;;;;;;20.75;18.85;;;;;;;;;;5071016;28;20542;-53
2023/11/13 13:35:13;;;;;;;20.50;18.60;;;;;;;;;;5053689;28;20032;-52
2023/11/13 13:37:40;;;;;;;20.63;18.73;;;;;;;;;;5070618;28;20028;-52
2023/11/13 13:40:09;;;;;;;20.85;18.95;;;;;;;;;;5052604;28;20032;-56
2023/11/13 13:42:40;;;;;;;21.15;19.25;;;;;;;;;;5071667;28;20028;-50
2023/11/13 13:45:07;;;;;;;21.25;19.35;;;;;;;;;;5071773;28;20517;-53
2023/11/13 13:47:34;;;;;;;28.08;25.58;;;;;;;;;;5071620;28;20059;-52
2023/11/13 13:49:59;;;;;;;27.48;25.08;;;;;;;;;;5071029;28;20101;-51
2023/11/13 13:52:30;;;;;;;26.45;24.15;;;;;;;;;;5053471;28;20052;-50
2023/11/13 13:55:05;;;;;;;26.27;23.98;;;;;;;;;;5062666;28;20119;-52
2023/11/13 13:57:31;;;;;;;26.42;24.10;;;;;;;;;;5071754;28;20398;-54
2023/11/13 13:59:57;;;;;;;26.63;24.23;;;;;;;;;;5070268;28;20501;-53
2023/11/13 14:02:26;;;;;;;26.95;24.55;;;;;;;;;;5070812;28;20021;-51
2023/11/13 14:04:52;;;;;;;26.58;24.17;;;;;;;;;;5070877;28;20028;-55
2023/11/13 14:07:18;;;;;;;27.20;24.80;;;;;;;;;;5070830;28;20028;-54
2023/11/13 14:09:44;;;;;;;27.40;24.85;;;;;;;;;;5070643;28;20601;-52
2023/11/13 14:12:10;;;;;;;26.95;24.55;;;;;;;;;;5071690;28;20153;-52
2023/11/13 14:14:36;;;;;;;26.85;24.45;;;;;;;;;;5070666;28;20029;-55
2023/11/13 14:17:03;;;;;;;26.63;24.25;;;;;;;;;;5070565;28;20417;-54
2023/11/13 14:19:29;;;;;;;26.17;23.88;;;;;;;;;;5070322;28;20151;-53
2023/11/13 14:21:57;;;;;;;27.55;25.15;;;;;;;;;;5069837;28;20039;-53
2023/11/13 14:24:25;;;;;;;27.70;25.20;;;;;;;;;;5053207;28;20032;-56
2023/11/13 14:26:51;;;;;;;26.48;24.15;;;;;;;;;;5070754;28;20032;-54
2023/11/13 14:29:17;;;;;;;26.73;24.38;;;;;;;;;;5070318;28;20536;-54